createdAt,value
2022-12-03T00:01:45.851Z,77904.75
2022-12-03T00:04:12.389Z,77900.88
2022-12-03T00:06:38.923Z,77902.81
2022-12-03T00:09:05.496Z,77900.88
2022-12-03T00:11:32.350Z,77893.19
2022-12-03T00:13:58.851Z,77897.03
2022-12-03T00:16:25.419Z,77900.88
2022-12-03T00:18:52.066Z,77891.25
2022-12-03T00:21:18.668Z,77891.25
2022-12-03T00:23:45.194Z,77885.47
2022-12-03T00:26:11.736Z,77889.31
2022-12-03T00:28:38.395Z,77881.59
2022-12-03T00:31:05.053Z,77885.47
2022-12-03T00:33:31.634Z,77877.75
2022-12-03T00:35:58.211Z,77870.03
2022-12-03T00:38:24.741Z,77875.81
2022-12-03T00:40:51.347Z,77871.97
2022-12-03T00:43:17.875Z,77873.91
2022-12-03T00:45:44.566Z,77866.19
2022-12-03T00:48:11.050Z,77862.34
2022-12-03T00:50:37.637Z,77870.03
2022-12-03T00:53:04.255Z,77866.19
2022-12-03T00:55:30.913Z,77866.19
2022-12-03T00:57:57.425Z,77866.19
2022-12-03T01:00:25.363Z,77862.34
2022-12-03T01:02:52.548Z,77860.41
2022-12-03T01:05:19.836Z,77870.03
2022-12-03T01:07:47.044Z,77866.19
2022-12-03T01:10:13.793Z,77862.34
2022-12-03T01:12:40.568Z,77864.25
2022-12-03T01:15:07.376Z,77868.13
2022-12-03T01:17:33.965Z,77868.13
2022-12-03T01:20:01.789Z,77870.03
2022-12-03T01:22:28.281Z,77868.13
2022-12-03T01:24:55.054Z,77870.03
2022-12-03T01:27:21.902Z,77864.25
2022-12-03T01:29:48.499Z,77868.13
2022-12-03T01:32:19.365Z,77870.03
2022-12-03T01:34:46.739Z,77868.13
2022-12-03T01:37:13.898Z,77858.47
2022-12-03T01:39:40.658Z,77860.41
2022-12-03T01:42:08.565Z,77868.13
2022-12-03T01:44:36.699Z,77868.13
2022-12-03T01:47:05.039Z,77866.19
2022-12-03T01:49:34.811Z,77862.34
2022-12-03T01:52:01.773Z,77860.41
2022-12-03T01:54:33.123Z,77858.47
2022-12-03T01:56:59.565Z,77856.56
2022-12-03T01:59:32.858Z,77852.69
2022-12-03T02:02:00.706Z,77856.56
2022-12-03T02:04:27.362Z,77846.91
2022-12-03T02:06:53.946Z,77848.84
2022-12-03T02:09:20.480Z,77844.97
2022-12-03T02:11:49.384Z,77846.91
2022-12-03T02:14:18.942Z,77839.19
2022-12-03T02:16:45.905Z,77846.91
2022-12-03T02:19:27.104Z,77850.75
2022-12-03T02:21:59.714Z,77850.75
2022-12-03T02:24:26.311Z,77848.84
2022-12-03T02:26:52.854Z,77850.75
2022-12-03T02:29:19.396Z,77843.06
2022-12-03T02:31:46.419Z,77846.91
2022-12-03T02:34:32.929Z,77843.06
2022-12-03T02:36:59.694Z,77850.75
2022-12-03T02:39:26.506Z,77843.06
2022-12-03T02:42:11.800Z,77843.06
2022-12-03T02:44:38.537Z,77841.13
2022-12-03T02:47:05.159Z,77839.19
2022-12-03T02:49:31.898Z,77844.97
2022-12-03T02:51:58.545Z,77846.91
2022-12-03T02:54:25.548Z,77843.06
2022-12-03T02:56:52.254Z,77839.19
2022-12-03T02:59:18.787Z,77835.34
2022-12-03T03:01:45.523Z,77839.19
2022-12-03T03:04:12.109Z,77835.34
2022-12-03T03:06:38.651Z,77829.56
2022-12-03T03:09:05.160Z,77839.19
2022-12-03T03:11:31.853Z,77839.19
2022-12-03T03:13:58.559Z,77835.34
2022-12-03T03:16:25.121Z,77833.41
2022-12-03T03:18:51.655Z,77835.34
2022-12-03T03:21:18.226Z,77827.63
2022-12-03T03:23:45.491Z,77825.72
2022-12-03T03:26:13.665Z,77823.78
2022-12-03T03:28:42.867Z,77823.78
2022-12-03T03:31:11.223Z,77819.91
2022-12-03T03:33:39.552Z,77816.06
2022-12-03T03:36:06.766Z,77821.84
2022-12-03T03:38:34.197Z,77819.91
2022-12-03T03:41:02.719Z,77819.91
2022-12-03T03:43:30.377Z,77814.13
2022-12-03T03:45:56.999Z,77808.34
2022-12-03T03:48:23.717Z,77804.50
2022-12-03T03:50:50.939Z,77816.06
2022-12-03T03:53:18.606Z,77825.72
2022-12-03T03:55:45.455Z,77823.78
2022-12-03T03:58:12.080Z,77823.78
2022-12-03T04:00:38.702Z,77827.63
2022-12-03T04:03:05.761Z,77819.91
2022-12-03T04:05:32.377Z,77819.91
2022-12-03T04:07:59.369Z,77829.56
2022-12-03T04:10:44.540Z,77819.91
2022-12-03T04:13:11.081Z,77823.78
2022-12-03T04:15:38.025Z,77823.78
2022-12-03T04:18:23.359Z,77821.84
2022-12-03T04:20:49.960Z,77827.63
2022-12-03T04:23:16.495Z,77823.78
2022-12-03T04:26:03.404Z,77819.91
2022-12-03T04:28:48.470Z,77816.06
2022-12-03T04:31:33.468Z,77812.22
2022-12-03T04:34:18.637Z,77816.06
2022-12-03T04:36:45.241Z,77819.91
2022-12-03T04:39:11.741Z,77816.06
2022-12-03T04:41:38.355Z,77823.78
2022-12-03T04:44:23.798Z,77812.22
2022-12-03T04:46:50.428Z,77804.50
2022-12-03T04:49:16.941Z,77804.50
2022-12-03T04:51:43.475Z,77794.88
2022-12-03T04:54:10.159Z,77796.78
2022-12-03T04:56:36.659Z,77789.06
2022-12-03T04:59:03.677Z,77787.16
2022-12-03T05:01:30.223Z,77781.38
2022-12-03T05:03:56.828Z,77785.22
2022-12-03T05:06:23.393Z,77781.38
2022-12-03T05:08:49.931Z,77781.38
2022-12-03T05:11:16.556Z,77785.22
2022-12-03T05:13:43.335Z,77792.94
2022-12-03T05:16:09.994Z,77796.78
2022-12-03T05:18:36.607Z,77794.88
2022-12-03T05:21:03.201Z,77804.50
2022-12-03T05:23:29.712Z,77800.66
2022-12-03T05:25:56.295Z,77802.56
2022-12-03T05:28:24.364Z,77804.50
2022-12-03T05:30:51.392Z,77808.34
2022-12-03T05:33:18.065Z,77806.44
2022-12-03T05:35:44.832Z,77806.44
2022-12-03T05:38:11.345Z,77806.44
2022-12-03T05:40:37.944Z,77802.56
2022-12-03T05:43:04.793Z,77800.66
2022-12-03T05:45:31.279Z,77812.22
2022-12-03T05:47:58.472Z,77808.34
2022-12-03T05:50:26.381Z,77804.50
2022-12-03T05:52:54.573Z,77816.06
2022-12-03T05:55:21.532Z,77814.13
2022-12-03T05:57:48.179Z,77816.06
2022-12-03T06:00:17.333Z,77819.91
2022-12-03T06:02:44.208Z,77821.84
2022-12-03T06:05:11.775Z,77821.84
2022-12-03T06:07:38.589Z,77823.78
2022-12-03T06:10:05.832Z,77831.50
2022-12-03T06:12:32.366Z,77831.50
2022-12-03T06:14:59.657Z,77825.72
2022-12-03T06:17:27.539Z,77825.72
2022-12-03T06:19:54.072Z,77816.06
2022-12-03T06:22:20.600Z,77812.22
2022-12-03T06:24:47.296Z,77819.91
2022-12-03T06:27:13.889Z,77827.63
2022-12-03T06:29:40.498Z,77825.72
2022-12-03T06:32:07.008Z,77827.63
2022-12-03T06:34:33.608Z,77829.56
2022-12-03T06:37:00.232Z,77823.78
2022-12-03T06:39:26.776Z,77827.63
2022-12-03T06:41:53.338Z,77821.84
2022-12-03T06:44:19.834Z,77825.72
2022-12-03T06:46:47.902Z,77823.78
2022-12-03T06:49:14.579Z,77823.78
2022-12-03T06:51:41.457Z,77823.78
2022-12-03T06:54:08.022Z,77827.63
2022-12-03T06:56:37.835Z,77821.84
2022-12-03T06:59:08.359Z,77823.78
2022-12-03T07:01:34.919Z,77819.91
2022-12-03T07:04:01.536Z,77823.78
2022-12-03T07:06:28.024Z,77823.78
2022-12-03T07:08:54.641Z,77831.50
2022-12-03T07:11:33.370Z,77827.63
2022-12-03T07:14:05.184Z,77819.91
2022-12-03T07:16:32.542Z,77821.84
2022-12-03T07:18:59.082Z,77819.91
2022-12-03T07:21:25.611Z,77816.06
2022-12-03T07:23:52.163Z,77812.22
2022-12-03T07:26:19.341Z,77810.28
2022-12-03T07:28:48.208Z,77812.22
2022-12-03T07:31:15.200Z,77804.50
2022-12-03T07:33:42.283Z,77812.22
2022-12-03T07:36:09.574Z,77812.22
2022-12-03T07:38:36.268Z,77808.34
2022-12-03T07:41:03.359Z,77804.50
2022-12-03T07:43:29.897Z,77812.22
2022-12-03T07:45:56.415Z,77816.06
2022-12-03T07:48:23.059Z,77814.13
2022-12-03T07:50:49.671Z,77814.13
2022-12-03T07:53:16.253Z,77814.13
2022-12-03T07:55:42.771Z,77812.22
2022-12-03T07:58:09.419Z,77816.06
2022-12-03T08:00:36.158Z,77806.44
2022-12-03T08:03:02.747Z,77804.50
2022-12-03T08:05:29.922Z,77814.13
2022-12-03T08:07:56.751Z,77808.34
2022-12-03T08:10:25.127Z,77812.22
2022-12-03T08:12:51.778Z,77808.34
2022-12-03T08:15:19.511Z,77808.34
2022-12-03T08:17:47.703Z,77812.22
2022-12-03T08:20:18.816Z,77804.50
2022-12-03T08:22:46.515Z,77808.34
2022-12-03T08:25:24.294Z,77812.22
2022-12-03T08:27:51.933Z,77804.50
2022-12-03T08:30:18.607Z,77785.22
2022-12-03T08:32:47.134Z,77789.06
2022-12-03T08:35:21.775Z,77789.06
2022-12-03T08:37:50.088Z,77798.72
2022-12-03T08:40:23.728Z,77792.94
2022-12-03T08:42:50.461Z,77789.06
2022-12-03T08:45:28.045Z,77785.22
2022-12-03T08:48:00.036Z,77789.06
2022-12-03T08:50:39.370Z,77789.06
2022-12-03T08:53:29.039Z,77783.28
2022-12-03T08:56:00.166Z,77777.50
2022-12-03T08:58:46.906Z,77781.38
2022-12-03T09:01:13.440Z,77779.44
2022-12-03T09:03:47.310Z,77781.38
2022-12-03T09:06:13.904Z,77775.59
2022-12-03T09:08:40.395Z,77769.81
2022-12-03T09:11:06.961Z,77775.59
2022-12-03T09:13:33.712Z,77773.66
2022-12-03T09:16:00.293Z,77762.09
2022-12-03T09:18:26.827Z,77760.16
2022-12-03T09:20:53.360Z,77764.03
2022-12-03T09:23:19.872Z,77762.09
2022-12-03T09:25:46.391Z,77762.09
2022-12-03T09:28:12.988Z,77760.16
2022-12-03T09:30:39.636Z,77765.94
2022-12-03T09:33:06.374Z,77760.16
2022-12-03T09:35:32.934Z,77754.38
2022-12-03T09:37:59.539Z,77752.44
2022-12-03T09:40:26.552Z,77746.66
2022-12-03T09:42:53.199Z,77750.53
2022-12-03T09:45:19.932Z,77748.59
2022-12-03T09:47:48.078Z,77738.97
2022-12-03T09:50:16.079Z,77742.81
2022-12-03T09:52:42.578Z,77738.97
2022-12-03T09:55:15.778Z,77746.66
2022-12-03T09:57:42.302Z,77746.66
2022-12-03T10:00:32.110Z,77735.09
2022-12-03T10:03:02.444Z,77742.81
2022-12-03T10:05:29.367Z,77735.09
2022-12-03T10:08:01.213Z,77727.38
2022-12-03T10:10:28.072Z,77727.38
2022-12-03T10:12:54.951Z,77715.81
2022-12-03T10:15:22.947Z,77711.97
2022-12-03T10:17:52.097Z,77719.69
2022-12-03T10:20:21.137Z,77719.69
2022-12-03T10:22:48.858Z,77731.25
2022-12-03T10:25:20.434Z,77719.69
2022-12-03T10:27:58.624Z,77719.69
2022-12-03T10:30:28.334Z,77715.81
2022-12-03T10:32:56.990Z,77711.97
2022-12-03T10:35:37.491Z,77719.69
2022-12-03T10:38:23.172Z,77721.59
2022-12-03T10:40:49.689Z,77719.69
2022-12-03T10:43:19.308Z,77715.81
2022-12-03T10:45:52.178Z,77719.69
2022-12-03T10:48:27.407Z,77708.13
2022-12-03T10:50:56.312Z,77708.13
2022-12-03T10:53:24.444Z,77702.34
2022-12-03T10:55:52.242Z,77688.84
2022-12-03T10:58:21.182Z,77675.34
2022-12-03T11:00:48.463Z,77684.97
2022-12-03T11:03:22.824Z,77684.97
2022-12-03T11:05:49.831Z,77681.13
2022-12-03T11:08:26.943Z,77677.28
2022-12-03T11:11:01.553Z,77681.13
2022-12-03T11:13:28.079Z,77673.41
2022-12-03T11:15:54.908Z,77681.13
2022-12-03T11:18:36.044Z,77671.50
2022-12-03T11:21:02.642Z,77661.84
2022-12-03T11:23:44.375Z,77669.56
2022-12-03T11:26:18.895Z,77673.41
2022-12-03T11:28:46.275Z,77677.28
2022-12-03T11:31:36.344Z,77677.28
2022-12-03T11:34:18.154Z,77677.28
2022-12-03T11:37:03.376Z,77658.00
2022-12-03T11:39:45.229Z,77669.56
2022-12-03T11:42:26.978Z,77667.63
2022-12-03T11:45:02.737Z,77673.41
2022-12-03T11:47:31.089Z,77677.28
2022-12-03T11:49:58.135Z,77665.72
2022-12-03T11:52:29.971Z,77669.56
2022-12-03T11:54:59.714Z,77671.50
2022-12-03T11:57:28.759Z,77669.56
2022-12-03T12:00:18.401Z,77675.34
2022-12-03T12:02:45.366Z,77677.28
2022-12-03T12:05:20.944Z,77667.63
2022-12-03T12:07:48.286Z,77669.56
2022-12-03T12:10:34.953Z,77665.72
2022-12-03T12:13:01.504Z,77661.84
2022-12-03T12:15:41.775Z,77658.00
2022-12-03T12:18:27.264Z,77656.06
2022-12-03T12:20:54.428Z,77654.13
2022-12-03T12:23:23.082Z,77652.22
2022-12-03T12:25:54.213Z,77648.34
2022-12-03T12:28:21.094Z,77654.13
2022-12-03T12:30:47.609Z,77646.44
2022-12-03T12:33:16.831Z,77654.13
2022-12-03T12:35:43.373Z,77652.22
2022-12-03T12:38:11.420Z,77654.13
2022-12-03T12:40:39.861Z,77650.28
2022-12-03T12:43:16.485Z,77646.44
2022-12-03T12:45:45.590Z,77658.00
2022-12-03T12:48:15.089Z,77656.06
2022-12-03T12:50:42.894Z,77650.28
2022-12-03T12:53:27.385Z,77648.34
2022-12-03T12:55:55.807Z,77650.28
2022-12-03T12:58:22.710Z,77646.44
2022-12-03T13:00:52.094Z,77648.34
2022-12-03T13:03:19.698Z,77642.56
2022-12-03T13:05:47.846Z,77634.88
2022-12-03T13:08:17.435Z,77634.88
2022-12-03T13:10:44.305Z,77631.00
2022-12-03T13:13:20.075Z,77634.88
2022-12-03T13:15:52.591Z,77627.16
2022-12-03T13:18:19.201Z,77629.09
2022-12-03T13:20:45.704Z,77621.38
2022-12-03T13:23:23.101Z,77619.44
2022-12-03T13:26:00.516Z,77619.44
2022-12-03T13:28:34.475Z,77619.44
2022-12-03T13:31:14.608Z,77611.72
2022-12-03T13:33:42.378Z,77607.88
2022-12-03T13:36:12.926Z,77611.72
2022-12-03T13:38:39.461Z,77596.31
2022-12-03T13:41:06.047Z,77596.31
2022-12-03T13:43:33.056Z,77596.31
2022-12-03T13:46:00.154Z,77592.47
2022-12-03T13:48:35.358Z,77596.31
2022-12-03T13:51:14.264Z,77592.47
2022-12-03T13:53:40.963Z,77596.31
2022-12-03T13:56:26.485Z,77592.47
2022-12-03T13:58:53.336Z,77592.47
2022-12-03T14:01:20.065Z,77592.47
2022-12-03T14:03:46.787Z,77592.47
2022-12-03T14:06:13.314Z,77592.47
2022-12-03T14:08:39.917Z,77590.53
2022-12-03T14:11:06.429Z,77596.31
2022-12-03T14:13:33.131Z,77596.31
2022-12-03T14:15:59.805Z,77594.38
2022-12-03T14:18:26.449Z,77588.59
2022-12-03T14:20:53.037Z,77588.59
2022-12-03T14:23:19.679Z,77578.97
2022-12-03T14:25:46.184Z,77578.97
2022-12-03T14:28:12.810Z,77577.03
2022-12-03T14:30:39.501Z,77580.91
2022-12-03T14:33:06.027Z,77580.91
2022-12-03T14:35:32.619Z,77580.91
2022-12-03T14:37:59.240Z,77588.59
2022-12-03T14:40:26.304Z,77594.38
2022-12-03T14:42:52.810Z,77600.16
2022-12-03T14:45:20.913Z,77604.03
2022-12-03T14:47:47.431Z,77604.03
2022-12-03T14:50:15.197Z,77605.94
2022-12-03T14:52:41.952Z,77604.03
2022-12-03T14:55:08.770Z,77609.81
2022-12-03T14:57:36.742Z,77613.66
2022-12-03T15:00:04.785Z,77609.81
2022-12-03T15:02:31.977Z,77615.59
2022-12-03T15:04:58.591Z,77611.72
2022-12-03T15:07:25.218Z,77604.03
2022-12-03T15:09:52.218Z,77607.88
2022-12-03T15:12:18.978Z,77607.88
2022-12-03T15:14:45.472Z,77602.09
2022-12-03T15:17:12.081Z,77607.88
2022-12-03T15:19:38.737Z,77602.09
2022-12-03T15:22:05.260Z,77600.16
2022-12-03T15:24:31.913Z,77596.31
2022-12-03T15:26:58.604Z,77588.59
2022-12-03T15:29:25.398Z,77586.69
2022-12-03T15:31:53.712Z,77586.69
2022-12-03T15:34:22.799Z,77592.47
2022-12-03T15:36:51.066Z,77582.81
2022-12-03T15:39:20.463Z,77580.91
2022-12-03T15:41:48.013Z,77582.81
2022-12-03T15:44:14.483Z,77584.75
2022-12-03T15:46:41.040Z,77577.03
2022-12-03T15:49:07.689Z,77577.03
2022-12-03T15:51:34.521Z,77577.03
2022-12-03T15:54:01.027Z,77573.19
2022-12-03T15:56:27.877Z,77565.47
2022-12-03T15:58:54.398Z,77569.31
2022-12-03T16:01:21.033Z,77565.47
2022-12-03T16:03:48.421Z,77561.63
2022-12-03T16:06:17.639Z,77561.63
2022-12-03T16:08:44.264Z,77555.84
2022-12-03T16:11:11.105Z,77557.75
2022-12-03T16:13:37.667Z,77557.75
2022-12-03T16:16:04.331Z,77559.69
2022-12-03T16:18:32.181Z,77557.75
2022-12-03T16:20:58.785Z,77567.41
2022-12-03T16:23:25.400Z,77567.41
2022-12-03T16:25:51.917Z,77557.75
2022-12-03T16:28:18.435Z,77550.06
2022-12-03T16:30:45.016Z,77553.91
2022-12-03T16:33:11.877Z,77555.84
2022-12-03T16:35:38.643Z,77555.84
2022-12-03T16:38:05.258Z,77553.91
2022-12-03T16:40:32.118Z,77546.19
2022-12-03T16:42:58.712Z,77548.13
2022-12-03T16:45:43.821Z,77544.28
2022-12-03T16:48:10.400Z,77538.47
2022-12-03T16:50:37.760Z,77534.63
2022-12-03T16:53:06.868Z,77530.78
2022-12-03T16:55:33.431Z,77534.63
2022-12-03T16:58:00.047Z,77530.78
2022-12-03T17:00:27.388Z,77526.91
2022-12-03T17:02:54.049Z,77528.84
2022-12-03T17:05:23.126Z,77528.84
2022-12-03T17:07:50.889Z,77530.78
2022-12-03T17:10:17.506Z,77526.91
2022-12-03T17:13:08.355Z,77523.06
2022-12-03T17:15:31.140Z,77523.06
2022-12-03T17:17:58.615Z,77526.91
2022-12-03T17:20:25.307Z,77521.13
2022-12-03T17:22:51.999Z,77517.28
2022-12-03T17:25:18.516Z,77511.50
2022-12-03T17:27:45.684Z,77511.50
2022-12-03T17:30:12.489Z,77499.94
2022-12-03T17:32:40.579Z,77503.78
2022-12-03T17:35:08.143Z,77494.16
2022-12-03T17:37:34.722Z,77499.94
2022-12-03T17:40:01.366Z,77494.16
2022-12-03T17:42:28.151Z,77499.94
2022-12-03T17:44:55.138Z,77503.78
2022-12-03T17:47:24.049Z,77496.06
2022-12-03T17:49:50.636Z,77499.94
2022-12-03T17:52:17.239Z,77499.94
2022-12-03T17:55:09.012Z,77492.22
2022-12-03T17:57:31.017Z,77488.38
2022-12-03T17:59:57.625Z,77492.22
2022-12-03T18:02:24.267Z,77492.22
2022-12-03T18:04:51.034Z,77496.06
2022-12-03T18:07:17.570Z,77503.78
2022-12-03T18:09:44.178Z,77503.78
2022-12-03T18:12:10.853Z,77503.78
2022-12-03T18:14:37.461Z,77499.94
2022-12-03T18:17:04.150Z,77499.94
2022-12-03T18:19:30.699Z,77507.66
2022-12-03T18:21:57.241Z,77507.66
2022-12-03T18:24:25.819Z,77501.84
2022-12-03T18:26:52.576Z,77501.84
2022-12-03T18:29:19.213Z,77503.78
2022-12-03T18:31:46.025Z,77507.66
2022-12-03T18:34:12.556Z,77511.50
2022-12-03T18:36:39.548Z,77507.66
2022-12-03T18:39:14.529Z,77515.34
2022-12-03T18:41:41.147Z,77525.00
2022-12-03T18:44:10.954Z,77519.22
2022-12-03T18:46:53.013Z,77519.22
2022-12-03T18:49:20.734Z,77511.50
2022-12-03T18:51:55.858Z,77515.34
2022-12-03T18:54:25.528Z,77523.06
2022-12-03T18:56:52.386Z,77523.06
2022-12-03T18:59:18.948Z,77513.44
2022-12-03T19:01:45.676Z,77521.13
2022-12-03T19:04:12.709Z,77526.91
2022-12-03T19:06:41.766Z,77526.91
2022-12-03T19:09:09.144Z,77525.00
2022-12-03T19:11:35.860Z,77519.22
2022-12-03T19:14:07.523Z,77519.22
2022-12-03T19:16:35.862Z,77519.22
2022-12-03T19:19:02.459Z,77519.22
2022-12-03T19:21:33.546Z,77519.22
2022-12-03T19:24:23.267Z,77525.00
2022-12-03T19:26:47.329Z,77525.00
2022-12-03T19:29:14.116Z,77525.00
2022-12-03T19:31:43.092Z,77526.91
2022-12-03T19:34:09.866Z,77526.91
2022-12-03T19:36:36.381Z,77526.91
2022-12-03T19:39:02.993Z,77530.78
2022-12-03T19:41:32.556Z,77530.78
2022-12-03T19:43:59.449Z,77526.91
2022-12-03T19:46:28.873Z,77530.78
2022-12-03T19:48:55.455Z,77526.91
2022-12-03T19:51:37.015Z,77530.78
2022-12-03T19:54:04.528Z,77530.78
2022-12-03T19:56:31.139Z,77526.91
2022-12-03T19:58:57.960Z,77526.91
2022-12-03T20:01:29.748Z,77528.84
2022-12-03T20:03:57.506Z,77526.91
2022-12-03T20:06:25.450Z,77523.06
2022-12-03T20:08:59.382Z,77523.06
2022-12-03T20:11:30.334Z,77526.91
2022-12-03T20:14:01.535Z,77523.06
2022-12-03T20:16:28.571Z,77526.91
2022-12-03T20:19:03.629Z,77530.78
2022-12-03T20:21:31.612Z,77526.91
2022-12-03T20:23:58.136Z,77523.06
2022-12-03T20:26:25.068Z,77526.91
2022-12-03T20:28:53.585Z,77523.06
2022-12-03T20:31:21.577Z,77526.91
2022-12-03T20:33:52.564Z,77519.22
2022-12-03T20:36:20.885Z,77534.63
2022-12-03T20:38:47.500Z,77532.69
2022-12-03T20:41:18.428Z,77528.84
2022-12-03T20:43:45.394Z,77528.84
2022-12-03T20:46:15.004Z,77521.13
2022-12-03T20:48:42.470Z,77515.34
2022-12-03T20:51:10.994Z,77511.50
2022-12-03T20:53:37.845Z,77513.44
2022-12-03T20:56:05.540Z,77505.72
2022-12-03T20:58:32.433Z,77503.78
2022-12-03T21:01:15.582Z,77499.94
2022-12-03T21:03:42.912Z,77507.66
2022-12-03T21:06:10.378Z,77507.66
2022-12-03T21:08:41.487Z,77505.72
2022-12-03T21:11:16.761Z,77511.50
2022-12-03T21:13:44.145Z,77519.22
2022-12-03T21:16:16.161Z,77513.44
2022-12-03T21:18:43.301Z,77513.44
2022-12-03T21:21:13.834Z,77509.56
2022-12-03T21:23:40.510Z,77507.66
2022-12-03T21:26:09.214Z,77515.34
2022-12-03T21:28:35.706Z,77515.34
2022-12-03T21:31:03.758Z,77499.94
2022-12-03T21:33:30.808Z,77507.66
2022-12-03T21:35:57.837Z,77515.34
2022-12-03T21:38:24.926Z,77519.22
2022-12-03T21:40:51.511Z,77519.22
2022-12-03T21:43:18.312Z,77519.22
2022-12-03T21:45:45.164Z,77515.34
2022-12-03T21:48:12.198Z,77511.50
2022-12-03T21:50:38.848Z,77503.78
2022-12-03T21:53:05.586Z,77498.00
2022-12-03T21:55:32.265Z,77499.94
2022-12-03T21:57:58.851Z,77490.28
2022-12-03T22:00:25.354Z,77488.38
2022-12-03T22:02:53.728Z,77492.22
2022-12-03T22:05:20.407Z,77492.22
2022-12-03T22:07:46.991Z,77476.81
2022-12-03T22:10:14.093Z,77472.94
2022-12-03T22:12:41.972Z,77461.38
2022-12-03T22:15:13.363Z,77465.25
2022-12-03T22:17:43.255Z,77463.31
2022-12-03T22:20:10.104Z,77457.53
2022-12-03T22:22:36.728Z,77467.16
2022-12-03T22:25:03.340Z,77463.31
2022-12-03T22:27:29.894Z,77457.53
2022-12-03T22:29:56.895Z,77451.75
2022-12-03T22:32:23.928Z,77447.88
2022-12-03T22:34:50.661Z,77440.19
2022-12-03T22:37:17.287Z,77440.19
2022-12-03T22:39:46.840Z,77438.25
2022-12-03T22:42:13.357Z,77430.53
2022-12-03T22:44:39.851Z,77426.69
2022-12-03T22:47:06.544Z,77424.75
2022-12-03T22:49:33.007Z,77428.63
2022-12-03T22:51:59.544Z,77426.69
2022-12-03T22:54:26.126Z,77426.69
2022-12-03T22:56:52.694Z,77422.84
2022-12-03T22:59:19.220Z,77413.19
2022-12-03T23:01:46.065Z,77420.91
2022-12-03T23:04:13.089Z,77422.84
2022-12-03T23:06:40.135Z,77418.97
2022-12-03T23:09:07.030Z,77422.84
2022-12-03T23:11:33.889Z,77422.84
2022-12-03T23:14:00.815Z,77434.41
2022-12-03T23:16:29.261Z,77422.84
2022-12-03T23:18:57.272Z,77426.69
2022-12-03T23:21:29.427Z,77426.69
2022-12-03T23:24:04.287Z,77420.91
2022-12-03T23:26:33.527Z,77424.75
2022-12-03T23:29:00.074Z,77422.84
2022-12-03T23:31:28.390Z,77420.91
2022-12-03T23:33:55.874Z,77415.13
2022-12-03T23:36:23.213Z,77415.13
2022-12-03T23:38:50.200Z,77415.13
2022-12-03T23:41:18.206Z,77415.13
2022-12-03T23:43:44.876Z,77411.25
2022-12-03T23:46:12.647Z,77415.13
2022-12-03T23:48:39.481Z,77401.63
2022-12-03T23:51:10.523Z,77397.78
2022-12-03T23:53:37.396Z,77399.69
2022-12-03T23:56:05.027Z,77403.56
2022-12-03T23:58:31.730Z,77395.84
